createdAt,value
2022-09-13T00:00:03.199Z,82.44
2022-09-13T00:01:03.208Z,83.34
2022-09-13T00:02:03.168Z,84.05
2022-09-13T00:03:03.094Z,83.45
2022-09-13T00:04:03.049Z,83.54
2022-09-13T00:05:03.030Z,84.15
2022-09-13T00:06:02.976Z,83.75
2022-09-13T00:07:02.936Z,83.48
2022-09-13T00:08:02.902Z,83.79
2022-09-13T00:09:02.867Z,83.79
2022-09-13T00:10:02.827Z,83.79
2022-09-13T00:11:02.800Z,84.19
2022-09-13T00:12:02.755Z,83.99
2022-09-13T00:13:02.726Z,84.49
2022-09-13T00:14:02.677Z,83.99
2022-09-13T00:15:02.645Z,83.99
2022-09-13T00:16:02.672Z,84.19
2022-09-13T00:17:02.565Z,84.29
2022-09-13T00:18:02.528Z,84.39
2022-09-13T00:19:02.626Z,83.79
2022-09-13T00:20:02.467Z,82.98
2022-09-13T00:21:02.418Z,83.48
2022-09-13T00:22:02.384Z,83.79
2022-09-13T00:23:02.342Z,83.65
2022-09-13T00:24:02.303Z,83.45
2022-09-13T00:25:02.270Z,82.44
2022-09-13T00:26:02.242Z,82.84
2022-09-13T00:27:02.193Z,82.24
2022-09-13T00:28:02.157Z,81.90
2022-09-13T00:29:02.118Z,81.93
2022-09-13T00:30:02.102Z,82.94
2022-09-13T00:31:02.045Z,82.94
2022-09-13T00:32:02.092Z,81.70
2022-09-13T00:33:01.969Z,82.60
2022-09-13T00:34:01.933Z,82.50
2022-09-13T00:35:01.898Z,82.30
2022-09-13T00:36:01.856Z,81.33
2022-09-13T00:37:01.821Z,81.49
2022-09-13T00:38:01.795Z,81.79
2022-09-13T00:39:01.749Z,80.99
2022-09-13T00:40:01.763Z,81.29
2022-09-13T00:41:01.672Z,81.39
2022-09-13T00:42:01.645Z,81.59
2022-09-13T00:43:01.608Z,81.70
2022-09-13T00:44:01.573Z,81.49
2022-09-13T00:45:01.527Z,81.09
2022-09-13T00:46:01.560Z,81.59
2022-09-13T00:47:01.450Z,80.75
2022-09-13T00:48:01.412Z,81.09
2022-09-13T00:49:01.375Z,81.56
2022-09-13T00:50:01.351Z,80.85
2022-09-13T00:51:01.314Z,81.56
2022-09-13T00:52:01.261Z,81.76
2022-09-13T00:53:01.227Z,81.70
2022-09-13T00:54:01.190Z,81.99
2022-09-13T00:55:01.156Z,81.59
2022-09-13T00:56:01.113Z,81.79
2022-09-13T00:57:01.090Z,81.99
2022-09-13T00:58:01.040Z,83.61
2022-09-13T00:59:01.005Z,83.40
2022-09-13T01:00:00.965Z,82.90
2022-09-13T01:01:00.971Z,82.04
2022-09-13T01:02:00.926Z,83.51
2022-09-13T01:03:00.858Z,82.80
2022-09-13T01:04:00.817Z,83.04
2022-09-13T01:05:00.784Z,83.14
2022-09-13T01:06:00.745Z,83.25
2022-09-13T01:07:00.713Z,82.94
2022-09-13T01:08:00.681Z,82.64
2022-09-13T01:09:00.633Z,83.14
2022-09-13T01:10:00.596Z,82.84
2022-09-13T01:11:00.561Z,83.04
2022-09-13T01:12:00.527Z,82.74
2022-09-13T01:13:00.485Z,82.34
2022-09-13T01:14:00.458Z,82.80
2022-09-13T01:15:00.412Z,83.34
2022-09-13T01:16:00.451Z,83.25
2022-09-13T01:17:00.341Z,83.04
2022-09-13T01:18:00.418Z,82.54
2022-09-13T01:19:00.264Z,83.84
2022-09-13T01:20:00.232Z,83.34
2022-09-13T01:21:00.191Z,83.34
2022-09-13T01:22:00.151Z,83.65
2022-09-13T01:23:00.116Z,83.25
2022-09-13T01:24:00.092Z,83.65
2022-09-13T01:25:00.042Z,84.25
2022-09-13T01:26:00.003Z,83.65
2022-09-13T01:26:59.969Z,83.89
2022-09-13T01:27:59.930Z,84.39
2022-09-13T01:28:59.893Z,84.39
2022-09-13T01:29:59.865Z,83.89
2022-09-13T01:30:59.819Z,84.59
2022-09-13T01:31:59.831Z,84.69
2022-09-13T01:32:59.746Z,84.09
2022-09-13T01:33:59.706Z,84.29
2022-09-13T01:34:59.671Z,85.20
2022-09-13T01:35:59.647Z,84.19
2022-09-13T01:36:59.598Z,84.89
2022-09-13T01:37:59.558Z,84.59
2022-09-13T01:38:59.522Z,85.80
2022-09-13T01:39:59.546Z,85.40
2022-09-13T01:41:02.930Z,84.69
2022-09-13T01:41:59.409Z,85.10
2022-09-13T01:42:59.374Z,84.69
2022-09-13T01:43:59.336Z,84.94
2022-09-13T01:44:59.298Z,85.54
2022-09-13T01:45:59.289Z,84.69
2022-09-13T01:46:59.225Z,85.14
2022-09-13T01:47:59.186Z,84.69
2022-09-13T01:48:59.152Z,84.39
2022-09-13T01:49:59.111Z,84.69
2022-09-13T01:50:59.079Z,84.80
2022-09-13T01:51:59.050Z,83.89
2022-09-13T01:52:59.000Z,84.49
2022-09-13T01:53:58.963Z,85.40
2022-09-13T01:54:58.929Z,85.00
2022-09-13T01:56:08.378Z,84.39
2022-09-13T01:56:58.851Z,84.69
2022-09-13T01:57:58.824Z,85.10
2022-09-13T01:58:58.778Z,84.49
2022-09-13T01:59:58.740Z,85.20
2022-09-13T02:00:58.736Z,85.50
2022-09-13T02:01:58.695Z,84.69
2022-09-13T02:02:58.630Z,85.10
2022-09-13T02:03:58.602Z,85.00
2022-09-13T02:04:58.553Z,85.54
2022-09-13T02:05:58.516Z,85.80
2022-09-13T02:06:58.484Z,85.54
2022-09-13T02:07:58.441Z,85.24
2022-09-13T02:08:58.411Z,85.74
2022-09-13T02:09:58.379Z,85.94
2022-09-13T02:10:58.332Z,85.44
2022-09-13T02:11:58.292Z,86.35
2022-09-13T02:12:58.261Z,85.84
2022-09-13T02:13:58.217Z,85.64
2022-09-13T02:14:58.183Z,84.53
2022-09-13T02:15:58.157Z,85.74
2022-09-13T02:16:58.107Z,84.94
2022-09-13T02:17:58.069Z,85.14
2022-09-13T02:18:58.032Z,85.74
2022-09-13T02:19:57.992Z,85.54
2022-09-13T02:20:57.969Z,85.24
2022-09-13T02:21:57.922Z,85.54
2022-09-13T02:22:57.884Z,85.54
2022-09-13T02:23:57.948Z,85.64
2022-09-13T02:24:57.808Z,85.54
2022-09-13T02:25:57.784Z,85.20
2022-09-13T02:26:57.733Z,85.44
2022-09-13T02:27:57.696Z,85.03
2022-09-13T02:28:57.658Z,85.54
2022-09-13T02:29:57.620Z,85.00
2022-09-13T02:30:57.591Z,85.03
2022-09-13T02:31:57.604Z,85.03
2022-09-13T02:32:57.509Z,85.20
2022-09-13T02:33:57.484Z,84.39
2022-09-13T02:34:57.442Z,85.10
2022-09-13T02:35:57.396Z,84.69
2022-09-13T02:36:57.360Z,85.30
2022-09-13T02:37:57.323Z,85.00
2022-09-13T02:38:57.288Z,84.19
2022-09-13T02:39:57.321Z,84.29
2022-09-13T02:40:57.211Z,84.69
2022-09-13T02:41:57.175Z,84.29
2022-09-13T02:42:57.137Z,85.00
2022-09-13T02:43:57.099Z,84.89
2022-09-13T02:44:57.063Z,84.80
2022-09-13T02:45:57.080Z,84.49
2022-09-13T02:46:56.988Z,84.29
2022-09-13T02:47:56.952Z,85.20
2022-09-13T02:48:56.915Z,85.00
2022-09-13T02:49:56.875Z,85.20
2022-09-13T02:50:56.841Z,85.40
2022-09-13T02:51:56.814Z,85.00
2022-09-13T02:52:56.768Z,85.30
2022-09-13T02:53:56.730Z,85.40
2022-09-13T02:54:56.690Z,85.10
2022-09-13T02:55:56.651Z,85.30
2022-09-13T02:56:56.622Z,85.00
2022-09-13T02:57:56.591Z,85.44
2022-09-13T02:58:56.542Z,85.50
2022-09-13T02:59:56.502Z,85.24
2022-09-13T03:00:56.496Z,84.03
2022-09-13T03:01:56.467Z,84.09
2022-09-13T03:02:56.395Z,84.19
2022-09-13T03:03:56.363Z,85.40
2022-09-13T03:04:56.320Z,85.00
2022-09-13T03:05:56.280Z,85.20
2022-09-13T03:06:56.243Z,85.70
2022-09-13T03:07:56.204Z,84.80
2022-09-13T03:08:56.178Z,85.54
2022-09-13T03:09:56.129Z,85.34
2022-09-13T03:10:56.097Z,85.24
2022-09-13T03:11:56.053Z,84.59
2022-09-13T03:12:56.019Z,86.04
2022-09-13T03:13:55.984Z,85.84
2022-09-13T03:14:55.964Z,86.65
2022-09-13T03:15:55.908Z,85.74
2022-09-13T03:16:55.938Z,86.95
2022-09-13T03:17:55.831Z,87.55
2022-09-13T03:18:55.796Z,87.85
2022-09-13T03:19:55.772Z,88.96
2022-09-13T03:20:55.721Z,89.47
2022-09-13T03:21:55.687Z,89.06
2022-09-13T03:22:55.646Z,90.58
2022-09-13T03:23:55.612Z,91.53
2022-09-13T03:24:56.336Z,91.93
2022-09-13T03:25:55.548Z,91.99
2022-09-13T03:26:55.496Z,92.94
2022-09-13T03:27:55.461Z,91.33
2022-09-13T03:28:55.425Z,92.88
2022-09-13T03:29:55.385Z,91.77
2022-09-13T03:30:55.360Z,91.77
2022-09-13T03:31:55.349Z,92.47
2022-09-13T03:32:55.274Z,92.07
2022-09-13T03:33:55.238Z,92.27
2022-09-13T03:34:55.200Z,92.93
2022-09-13T03:35:55.172Z,92.82
2022-09-13T03:36:55.127Z,92.32
2022-09-13T03:37:55.087Z,91.82
2022-09-13T03:38:55.055Z,92.93
2022-09-13T03:39:55.032Z,93.13
2022-09-13T03:40:54.974Z,92.82
2022-09-13T03:41:54.954Z,93.84
2022-09-13T03:42:54.902Z,93.33
2022-09-13T03:43:54.861Z,93.53
2022-09-13T03:44:54.825Z,92.32
2022-09-13T03:45:54.840Z,93.53
2022-09-13T03:46:54.752Z,93.63
2022-09-13T03:47:54.938Z,93.23
2022-09-13T03:48:54.676Z,93.53
2022-09-13T03:49:54.638Z,93.33
2022-09-13T03:50:54.603Z,93.13
2022-09-13T03:51:54.560Z,92.12
2022-09-13T03:52:54.523Z,92.22
2022-09-13T03:53:54.502Z,91.82
2022-09-13T03:54:54.451Z,92.32
2022-09-13T03:55:54.412Z,92.02
2022-09-13T03:56:54.374Z,92.02
2022-09-13T03:57:54.336Z,92.02
2022-09-13T03:58:54.298Z,92.02
2022-09-13T03:59:54.273Z,92.52
2022-09-13T04:00:54.264Z,91.91
2022-09-13T04:01:54.271Z,92.02
2022-09-13T04:02:54.147Z,91.87
2022-09-13T04:03:56.835Z,91.41
2022-09-13T04:04:54.076Z,92.12
2022-09-13T04:05:54.047Z,91.37
2022-09-13T04:06:53.997Z,91.41
2022-09-13T04:07:53.969Z,91.71
2022-09-13T04:08:53.920Z,92.02
2022-09-13T04:09:53.898Z,92.02
2022-09-13T04:10:53.847Z,91.41
2022-09-13T04:11:53.808Z,90.81
2022-09-13T04:12:53.770Z,91.51
2022-09-13T04:13:53.735Z,91.31
2022-09-13T04:14:53.710Z,91.31
2022-09-13T04:15:53.656Z,91.11
2022-09-13T04:16:53.620Z,91.21
2022-09-13T04:17:53.592Z,91.21
2022-09-13T04:18:53.546Z,92.52
2022-09-13T04:19:53.507Z,91.01
2022-09-13T04:20:53.471Z,91.21
2022-09-13T04:21:53.431Z,91.47
2022-09-13T04:22:53.889Z,91.17
2022-09-13T04:23:53.373Z,91.57
2022-09-13T04:24:53.320Z,91.57
2022-09-13T04:25:53.282Z,91.27
2022-09-13T04:26:53.245Z,90.86
2022-09-13T04:27:53.204Z,91.82
2022-09-13T04:28:53.169Z,91.87
2022-09-13T04:29:53.210Z,93.18
2022-09-13T04:30:53.092Z,92.18
2022-09-13T04:31:53.101Z,93.18
2022-09-13T04:32:53.022Z,93.59
2022-09-13T04:33:52.985Z,94.59
2022-09-13T04:34:52.943Z,94.90
2022-09-13T04:35:52.921Z,93.69
2022-09-13T04:36:52.870Z,94.39
2022-09-13T04:37:52.832Z,94.80
2022-09-13T04:38:52.797Z,94.90
2022-09-13T04:39:52.773Z,96.36
2022-09-13T04:40:52.719Z,96.15
2022-09-13T04:41:52.691Z,96.01
2022-09-13T04:42:52.643Z,95.20
2022-09-13T04:43:52.629Z,95.30
2022-09-13T04:44:52.570Z,97.02
2022-09-13T04:45:52.595Z,96.51
2022-09-13T04:46:52.498Z,96.01
2022-09-13T04:47:52.475Z,97.02
2022-09-13T04:48:52.417Z,96.51
2022-09-13T04:49:52.381Z,97.77
2022-09-13T04:50:52.342Z,98.17
2022-09-13T04:51:52.304Z,98.17
2022-09-13T04:52:52.265Z,97.71
2022-09-13T04:53:52.243Z,98.11
2022-09-13T04:54:52.196Z,98.32
2022-09-13T04:55:52.155Z,99.22
2022-09-13T04:56:52.118Z,99.99
2022-09-13T04:57:52.079Z,99.73
2022-09-13T04:58:52.056Z,99.99
2022-09-13T04:59:52.004Z,99.99
2022-09-13T05:00:52.010Z,99.99
2022-09-13T05:01:52.040Z,99.99
2022-09-13T05:02:51.889Z,99.99
2022-09-13T05:03:51.855Z,99.99
2022-09-13T05:04:51.829Z,99.99
2022-09-13T05:05:51.777Z,99.99
2022-09-13T05:06:51.739Z,99.99
2022-09-13T05:07:51.702Z,99.99
2022-09-13T05:08:51.664Z,99.99
2022-09-13T05:09:51.626Z,99.99
2022-09-13T05:10:51.603Z,99.99
2022-09-13T05:11:51.552Z,99.99
2022-09-13T05:12:51.512Z,99.99
2022-09-13T05:13:51.474Z,99.99
2022-09-13T05:14:51.437Z,99.99
2022-09-13T05:15:51.439Z,99.99
2022-09-13T05:16:51.372Z,99.99
2022-09-13T05:17:51.324Z,99.99
2022-09-13T05:18:51.415Z,99.99
2022-09-13T05:19:51.249Z,99.99
2022-09-13T05:20:51.209Z,99.99
2022-09-13T05:21:51.173Z,99.99
2022-09-13T05:22:51.147Z,99.99
2022-09-13T05:23:51.097Z,99.99
2022-09-13T05:24:51.059Z,99.99
2022-09-13T05:25:51.030Z,99.99
2022-09-13T05:26:50.985Z,99.99
2022-09-13T05:27:50.944Z,99.99
2022-09-13T05:28:51.024Z,99.99
2022-09-13T05:29:50.870Z,99.99
2022-09-13T05:30:50.910Z,99.99
2022-09-13T05:31:50.794Z,99.99
2022-09-13T05:32:50.757Z,99.99
2022-09-13T05:33:50.719Z,99.99
2022-09-13T05:34:50.699Z,99.99
2022-09-13T05:35:50.645Z,99.99
2022-09-13T05:36:54.083Z,99.99
2022-09-13T05:37:50.569Z,99.99
2022-09-13T05:39:01.640Z,99.99
2022-09-13T05:40:10.262Z,99.99
2022-09-13T05:40:50.518Z,99.99
2022-09-13T05:41:50.414Z,99.99
2022-09-13T05:42:50.379Z,99.99
2022-09-13T05:43:50.343Z,99.99
2022-09-13T05:44:50.302Z,99.99
2022-09-13T05:45:50.305Z,99.99
2022-09-13T05:46:50.239Z,99.99
2022-09-13T05:47:50.191Z,99.99
2022-09-13T05:48:50.317Z,99.99
2022-09-13T05:50:09.232Z,99.99
2022-09-13T05:50:58.720Z,99.99
2022-09-13T05:51:50.041Z,99.99
2022-09-13T05:52:50.015Z,99.99
2022-09-13T05:53:49.964Z,99.99
2022-09-13T05:54:49.929Z,99.99
2022-09-13T05:55:49.887Z,99.99
2022-09-13T05:56:49.860Z,99.99
2022-09-13T05:57:49.815Z,99.99
2022-09-13T05:58:49.881Z,99.99
2022-09-13T05:59:49.739Z,99.99
2022-09-13T06:00:49.702Z,98.88
2022-09-13T06:01:49.681Z,98.47
2022-09-13T06:02:49.708Z,98.47
2022-09-13T06:03:49.589Z,97.56
2022-09-13T06:04:49.561Z,97.47
2022-09-13T06:05:49.514Z,96.45
2022-09-13T06:06:49.475Z,96.21
2022-09-13T06:07:49.439Z,96.01
2022-09-13T06:08:49.516Z,96.01
2022-09-13T06:09:49.365Z,96.31
2022-09-13T06:10:49.325Z,95.40
2022-09-13T06:11:49.286Z,94.95
2022-09-13T06:12:49.253Z,95.26
2022-09-13T06:13:49.211Z,94.31
2022-09-13T06:14:49.188Z,94.06
2022-09-13T06:15:49.188Z,93.80
2022-09-13T06:16:49.099Z,94.51
2022-09-13T06:17:49.063Z,95.31
2022-09-13T06:18:49.199Z,94.51
2022-09-13T06:19:48.987Z,95.01
2022-09-13T06:20:48.960Z,95.72
2022-09-13T06:21:48.983Z,95.72
2022-09-13T06:22:48.875Z,96.52
2022-09-13T06:23:48.838Z,97.03
2022-09-13T06:24:48.800Z,94.51
2022-09-13T06:25:48.765Z,96.62
2022-09-13T06:26:48.739Z,97.33
2022-09-13T06:27:50.138Z,97.13
2022-09-13T06:28:48.881Z,98.03
2022-09-13T06:29:48.616Z,98.19
2022-09-13T06:30:48.577Z,98.09
2022-09-13T06:31:48.540Z,94.36
2022-09-13T06:32:48.518Z,94.16
2022-09-13T06:33:48.468Z,93.86
2022-09-13T06:34:48.431Z,94.60
2022-09-13T06:35:48.393Z,94.16
2022-09-13T06:36:48.359Z,94.96
2022-09-13T06:37:48.331Z,95.17
2022-09-13T06:38:48.391Z,95.17
2022-09-13T06:39:48.287Z,92.25
2022-09-13T06:40:48.209Z,92.95
2022-09-13T06:41:48.173Z,92.10
2022-09-13T06:42:48.135Z,91.39
2022-09-13T06:43:48.103Z,91.66
2022-09-13T06:44:48.070Z,91.15
2022-09-13T06:45:48.093Z,90.61
2022-09-13T06:46:48.019Z,91.11
2022-09-13T06:47:47.960Z,90.16
2022-09-13T06:48:47.995Z,91.77
2022-09-13T06:49:47.889Z,91.67
2022-09-13T06:50:47.839Z,91.06
2022-09-13T06:51:47.805Z,91.67
2022-09-13T06:52:47.766Z,90.97
2022-09-13T06:53:47.734Z,90.86
2022-09-13T06:54:47.695Z,90.86
2022-09-13T06:55:47.671Z,90.26
2022-09-13T06:56:47.621Z,89.96
2022-09-13T06:57:47.587Z,89.76
2022-09-13T06:58:47.550Z,89.86
2022-09-13T06:59:47.516Z,89.80
2022-09-13T07:00:47.657Z,89.40
2022-09-13T07:01:47.572Z,89.04
2022-09-13T07:02:47.403Z,90.41
2022-09-13T07:03:47.368Z,89.40
2022-09-13T07:04:47.347Z,89.64
2022-09-13T07:05:47.299Z,90.81
2022-09-13T07:06:47.272Z,90.70
2022-09-13T07:07:47.225Z,90.70
2022-09-13T07:08:47.184Z,90.56
2022-09-13T07:09:47.233Z,90.26
2022-09-13T07:10:47.116Z,88.85
2022-09-13T07:11:47.083Z,88.85
2022-09-13T07:12:47.052Z,89.36
2022-09-13T07:13:47.002Z,90.16
2022-09-13T07:14:46.964Z,90.91
2022-09-13T07:15:46.994Z,90.46
2022-09-13T07:16:46.910Z,89.76
2022-09-13T07:17:46.861Z,89.76
2022-09-13T07:18:46.821Z,89.96
2022-09-13T07:19:46.787Z,88.85
2022-09-13T07:20:46.750Z,90.66
2022-09-13T07:21:46.711Z,90.06
2022-09-13T07:22:46.685Z,90.36
2022-09-13T07:23:46.639Z,89.66
2022-09-13T07:24:46.615Z,87.85
2022-09-13T07:25:46.566Z,88.65
2022-09-13T07:26:46.533Z,88.95
2022-09-13T07:27:46.496Z,87.60
2022-09-13T07:28:46.485Z,88.91
2022-09-13T07:29:46.423Z,87.91
2022-09-13T07:30:46.448Z,88.21
2022-09-13T07:31:46.349Z,88.21
2022-09-13T07:32:46.314Z,86.96
2022-09-13T07:33:46.279Z,86.16
2022-09-13T07:34:46.242Z,87.37
2022-09-13T07:35:46.206Z,87.22
2022-09-13T07:36:46.181Z,86.72
2022-09-13T07:37:46.134Z,86.42
2022-09-13T07:38:46.203Z,85.41
2022-09-13T07:39:46.108Z,85.72
2022-09-13T07:40:46.032Z,86.12
2022-09-13T07:41:45.991Z,85.68
2022-09-13T07:42:45.968Z,85.83
2022-09-13T07:43:45.918Z,85.53
2022-09-13T07:44:45.882Z,84.79
2022-09-13T07:45:45.846Z,83.35
2022-09-13T07:46:45.822Z,83.75
2022-09-13T07:47:45.774Z,83.81
2022-09-13T07:48:45.814Z,82.57
2022-09-13T07:49:45.706Z,81.47
2022-09-13T07:50:45.668Z,81.07
2022-09-13T07:51:45.638Z,80.93
2022-09-13T07:52:45.597Z,80.47
2022-09-13T07:53:45.563Z,80.80
2022-09-13T07:54:45.549Z,81.51
2022-09-13T07:55:45.492Z,82.01
2022-09-13T07:56:53.540Z,81.85
2022-09-13T07:57:45.422Z,81.04
2022-09-13T07:58:45.385Z,82.35
2022-09-13T07:59:45.351Z,82.75
2022-09-13T08:00:45.326Z,82.71
2022-09-13T08:01:45.376Z,82.51
2022-09-13T08:02:45.288Z,83.11
2022-09-13T08:03:45.276Z,82.01
2022-09-13T08:04:45.179Z,81.21
2022-09-13T08:05:45.141Z,80.21
2022-09-13T08:06:45.117Z,80.27
2022-09-13T08:07:45.074Z,80.17
2022-09-13T08:08:45.034Z,80.47
2022-09-13T08:09:45.000Z,79.89
2022-09-13T08:10:49.278Z,79.49
2022-09-13T08:11:44.933Z,79.25
2022-09-13T08:12:44.907Z,78.72
2022-09-13T08:13:44.860Z,77.68
2022-09-13T08:14:44.829Z,78.24
2022-09-13T08:15:44.868Z,75.87
2022-09-13T08:16:44.756Z,73.74
2022-09-13T08:17:44.721Z,72.95
2022-09-13T08:18:44.700Z,74.54
2022-09-13T08:19:44.651Z,74.11
2022-09-13T08:20:44.621Z,72.98
2022-09-13T08:21:44.586Z,72.14
2022-09-13T08:22:44.554Z,71.88
2022-09-13T08:23:44.519Z,71.45
2022-09-13T08:24:44.492Z,70.06
2022-09-13T08:25:44.467Z,70.15
2022-09-13T08:26:44.416Z,72.28
2022-09-13T08:27:44.381Z,69.53
2022-09-13T08:28:44.352Z,68.76
2022-09-13T08:29:44.312Z,66.38
2022-09-13T08:30:44.322Z,66.81
2022-09-13T08:31:44.251Z,67.04
2022-09-13T08:32:44.217Z,70.36
2022-09-13T08:33:46.481Z,70.72
2022-09-13T08:34:44.148Z,66.94
2022-09-13T08:35:44.120Z,68.40
2022-09-13T08:36:44.103Z,67.08
2022-09-13T08:37:44.050Z,65.86
2022-09-13T08:38:44.018Z,67.67
2022-09-13T08:39:44.028Z,69.59
2022-09-13T08:40:43.978Z,68.66
2022-09-13T08:41:43.923Z,69.56
2022-09-13T08:42:43.891Z,65.23
2022-09-13T08:43:43.863Z,65.79
2022-09-13T08:44:43.890Z,64.90
2022-09-13T08:45:43.792Z,62.72
2022-09-13T08:46:43.757Z,63.78
2022-09-13T08:47:43.720Z,64.96
2022-09-13T08:48:43.700Z,65.19
2022-09-13T08:49:43.673Z,65.89
2022-09-13T08:50:43.639Z,64.89
2022-09-13T08:51:43.604Z,66.58
2022-09-13T08:52:43.560Z,64.59
2022-09-13T08:53:43.530Z,64.40
2022-09-13T08:54:43.509Z,64.96
2022-09-13T08:55:43.462Z,64.56
2022-09-13T08:56:43.436Z,63.84
2022-09-13T08:57:43.412Z,65.56
2022-09-13T08:58:43.367Z,64.57
2022-09-13T08:59:43.335Z,63.51
2022-09-13T09:00:43.317Z,63.91
2022-09-13T09:01:43.336Z,64.57
2022-09-13T09:02:43.262Z,63.82
2022-09-13T09:03:43.263Z,61.44
2022-09-13T09:04:43.178Z,62.66
2022-09-13T09:05:43.175Z,62.63
2022-09-13T09:06:43.114Z,60.55
2022-09-13T09:07:43.081Z,60.62
2022-09-13T09:08:43.049Z,59.47
2022-09-13T09:09:43.019Z,59.47
2022-09-13T09:10:42.994Z,60.30
2022-09-13T09:11:42.974Z,61.29
2022-09-13T09:12:42.925Z,60.03
2022-09-13T09:13:42.953Z,61.07
2022-09-13T09:14:42.863Z,62.76
2022-09-13T09:15:42.854Z,61.96
2022-09-13T09:16:42.815Z,63.32
2022-09-13T09:17:42.773Z,61.34
2022-09-13T09:18:42.742Z,62.56
2022-09-13T09:19:42.711Z,63.58
2022-09-13T09:20:42.680Z,62.72
2022-09-13T09:21:42.687Z,65.09
2022-09-13T09:22:42.617Z,66.35
2022-09-13T09:23:42.679Z,64.90
2022-09-13T09:24:42.555Z,62.79
2022-09-13T09:25:42.525Z,63.71
2022-09-13T09:26:42.495Z,63.21
2022-09-13T09:27:42.475Z,64.01
2022-09-13T09:28:42.433Z,63.21
2022-09-13T09:29:42.402Z,64.28
2022-09-13T09:30:42.405Z,62.92
2022-09-13T09:31:42.343Z,63.61
2022-09-13T09:32:42.329Z,63.91
2022-09-13T09:33:42.349Z,64.11
2022-09-13T09:34:42.250Z,64.01
2022-09-13T09:35:42.218Z,65.59
2022-09-13T09:36:42.188Z,64.54
2022-09-13T09:37:42.161Z,64.11
2022-09-13T09:38:42.134Z,64.11
2022-09-13T09:39:42.109Z,63.29
2022-09-13T09:40:42.064Z,61.11
2022-09-13T09:41:42.031Z,62.60
2022-09-13T09:42:42.002Z,61.44
2022-09-13T09:43:42.031Z,63.39
2022-09-13T09:44:41.942Z,62.70
2022-09-13T09:45:41.985Z,61.18
2022-09-13T09:46:41.881Z,62.54
2022-09-13T09:47:41.850Z,61.78
2022-09-13T09:48:41.885Z,61.71
2022-09-13T09:49:41.795Z,61.74
2022-09-13T09:50:41.757Z,62.36
2022-09-13T09:51:41.728Z,63.55
2022-09-13T09:52:41.697Z,64.07
2022-09-13T09:53:41.677Z,64.07
2022-09-13T09:54:41.640Z,63.92
2022-09-13T09:55:41.603Z,60.82
2022-09-13T09:56:41.575Z,62.96
2022-09-13T09:57:41.559Z,62.04
2022-09-13T09:58:41.534Z,61.13
2022-09-13T09:59:41.487Z,61.38
2022-09-13T10:00:41.452Z,61.54
2022-09-13T10:01:41.438Z,60.94
2022-09-13T10:02:41.415Z,62.92
2022-09-13T10:03:41.498Z,63.21
2022-09-13T10:04:41.344Z,63.12
2022-09-13T10:05:41.302Z,63.78
2022-09-13T10:06:41.272Z,63.15
2022-09-13T10:07:41.242Z,64.14
2022-09-13T10:08:41.211Z,63.59
2022-09-13T10:09:41.211Z,61.25
2022-09-13T10:10:41.153Z,60.73
2022-09-13T10:11:41.118Z,60.11
2022-09-13T10:12:41.090Z,59.32
2022-09-13T10:13:41.091Z,59.52
2022-09-13T10:14:41.042Z,58.83
2022-09-13T10:15:41.016Z,59.28
2022-09-13T10:16:41.009Z,61.82
2022-09-13T10:17:40.946Z,58.86
2022-09-13T10:18:44.369Z,59.02
2022-09-13T10:19:40.884Z,59.29
2022-09-13T10:20:40.848Z,59.78
2022-09-13T10:21:40.823Z,57.29
2022-09-13T10:22:40.802Z,58.33
2022-09-13T10:23:40.759Z,59.39
2022-09-13T10:24:40.731Z,58.67
2022-09-13T10:25:43.675Z,59.26
2022-09-13T10:26:40.680Z,56.84
2022-09-13T10:27:40.642Z,55.91
2022-09-13T10:28:40.631Z,58.04
2022-09-13T10:29:40.585Z,59.55
2022-09-13T10:30:40.616Z,58.23
2022-09-13T10:31:40.531Z,58.33
2022-09-13T10:32:40.499Z,59.78
2022-09-13T10:33:40.469Z,59.92
2022-09-13T10:34:40.457Z,56.62
2022-09-13T10:35:40.412Z,54.68
2022-09-13T10:36:52.113Z,57.53
2022-09-13T10:37:40.355Z,56.48
2022-09-13T10:38:48.605Z,57.73
2022-09-13T10:39:40.336Z,55.79
2022-09-13T10:40:40.284Z,55.58
2022-09-13T10:41:40.242Z,58.01
2022-09-13T10:42:40.212Z,57.91
2022-09-13T10:43:40.183Z,58.30
2022-09-13T10:44:40.160Z,57.45
2022-09-13T10:45:40.174Z,57.54
2022-09-13T10:46:40.099Z,57.84
2022-09-13T10:47:40.070Z,57.60
2022-09-13T10:48:40.046Z,57.30
2022-09-13T10:49:40.048Z,60.33
2022-09-13T10:50:39.987Z,59.39
2022-09-13T10:51:39.967Z,58.01
2022-09-13T10:52:39.934Z,57.86
2022-09-13T10:53:39.906Z,57.33
2022-09-13T10:54:39.876Z,56.05
2022-09-13T10:55:39.843Z,56.64
2022-09-13T10:56:39.817Z,56.02
2022-09-13T10:57:39.802Z,57.37
2022-09-13T10:58:39.761Z,53.22
2022-09-13T10:59:39.729Z,55.28
2022-09-13T11:00:39.707Z,53.81
2022-09-13T11:01:40.556Z,54.37
2022-09-13T11:02:39.647Z,55.72
2022-09-13T11:03:39.626Z,53.75
2022-09-13T11:04:39.592Z,52.87
2022-09-13T11:05:39.565Z,52.80
2022-09-13T11:06:39.534Z,56.95
2022-09-13T11:07:39.504Z,56.20
2022-09-13T11:08:39.492Z,56.42
2022-09-13T11:09:39.451Z,55.73
2022-09-13T11:10:39.427Z,57.06
2022-09-13T11:11:39.393Z,56.96
2022-09-13T11:12:39.375Z,57.49
2022-09-13T11:13:41.900Z,59.69
2022-09-13T11:14:39.319Z,57.09
2022-09-13T11:15:39.275Z,55.94
2022-09-13T11:16:39.280Z,58.43
2022-09-13T11:17:39.218Z,59.74
2022-09-13T11:18:39.194Z,59.67
2022-09-13T11:19:39.173Z,59.80
2022-09-13T11:20:39.140Z,62.77
2022-09-13T11:21:39.108Z,60.69
2022-09-13T11:22:39.070Z,61.29
2022-09-13T11:23:39.042Z,62.30
2022-09-13T11:24:39.038Z,61.75
2022-09-13T11:25:38.990Z,61.11
2022-09-13T11:26:38.950Z,60.62
2022-09-13T11:27:38.922Z,60.22
2022-09-13T11:28:38.891Z,59.93
2022-09-13T11:29:38.861Z,59.83
2022-09-13T11:30:38.840Z,61.51
2022-09-13T11:31:38.864Z,63.16
2022-09-13T11:32:38.771Z,63.53
2022-09-13T11:33:38.738Z,59.67
2022-09-13T11:34:38.708Z,60.04
2022-09-13T11:35:38.684Z,60.21
2022-09-13T11:36:38.659Z,59.52
2022-09-13T11:37:38.620Z,61.00
2022-09-13T11:38:38.590Z,58.43
2022-09-13T11:39:38.558Z,60.31
2022-09-13T11:40:38.525Z,59.34
2022-09-13T11:41:38.508Z,60.01
2022-09-13T11:42:38.477Z,59.22
2022-09-13T11:43:38.553Z,58.89
2022-09-13T11:44:38.407Z,60.38
2022-09-13T11:45:38.406Z,58.37
2022-09-13T11:46:38.345Z,58.45
2022-09-13T11:47:38.318Z,58.54
2022-09-13T11:48:38.297Z,56.90
2022-09-13T11:49:38.257Z,58.60
2022-09-13T11:50:38.230Z,58.14
2022-09-13T11:51:38.196Z,60.01
2022-09-13T11:52:38.169Z,57.57
2022-09-13T11:53:38.138Z,59.77
2022-09-13T11:54:38.124Z,58.51
2022-09-13T11:55:38.079Z,59.41
2022-09-13T11:56:38.114Z,61.29
2022-09-13T11:57:38.020Z,61.65
2022-09-13T11:58:37.988Z,61.52
2022-09-13T11:59:37.960Z,59.15
2022-09-13T12:00:37.940Z,61.22
2022-09-13T12:01:37.900Z,59.52
2022-09-13T12:02:37.942Z,58.65
2022-09-13T12:03:37.839Z,57.60
2022-09-13T12:04:37.812Z,60.07
2022-09-13T12:05:37.799Z,58.88
2022-09-13T12:06:37.757Z,59.47
2022-09-13T12:07:37.724Z,62.37
2022-09-13T12:08:37.692Z,60.10
2022-09-13T12:09:37.662Z,60.03
2022-09-13T12:10:37.635Z,61.15
2022-09-13T12:11:37.616Z,63.71
2022-09-13T12:12:37.590Z,62.01
2022-09-13T12:13:37.595Z,62.40
2022-09-13T12:14:37.520Z,60.03
2022-09-13T12:15:37.484Z,60.82
2022-09-13T12:16:37.471Z,59.93
2022-09-13T12:17:37.461Z,60.00
2022-09-13T12:18:37.393Z,60.59
2022-09-13T12:19:37.365Z,61.45
2022-09-13T12:20:37.332Z,61.05
2022-09-13T12:21:37.302Z,59.47
2022-09-13T12:22:37.290Z,59.11
2022-09-13T12:23:37.245Z,59.70
2022-09-13T12:24:37.213Z,60.99
2022-09-13T12:25:37.187Z,59.90
2022-09-13T12:26:37.157Z,61.25
2022-09-13T12:27:39.976Z,62.21
2022-09-13T12:28:37.115Z,61.49
2022-09-13T12:29:37.064Z,61.52
2022-09-13T12:30:37.035Z,60.57
2022-09-13T12:31:37.029Z,60.50
2022-09-13T12:32:36.988Z,59.22
2022-09-13T12:33:36.954Z,61.10
2022-09-13T12:34:36.922Z,60.31
2022-09-13T12:35:36.890Z,59.64
2022-09-13T12:36:36.858Z,60.66
2022-09-13T12:37:36.832Z,59.58
2022-09-13T12:38:36.810Z,59.87
2022-09-13T12:39:36.775Z,60.76
2022-09-13T12:40:36.741Z,60.36
2022-09-13T12:41:36.719Z,60.76
2022-09-13T12:42:36.687Z,59.47
2022-09-13T12:43:36.676Z,60.69
2022-09-13T12:44:36.649Z,61.38
2022-09-13T12:45:36.651Z,60.79
2022-09-13T12:46:36.574Z,60.69
2022-09-13T12:47:36.541Z,60.79
2022-09-13T12:48:36.510Z,58.22
2022-09-13T12:49:36.503Z,59.80
2022-09-13T12:50:43.583Z,60.10
2022-09-13T12:51:36.425Z,60.07